Time;durP1;ratioP1;P1;durP2;ratioP2;P2;SDS_P1;SDS_P2;PMS_P1;PMS_P2;Temp;Humidity;BMP_temperature;BMP_pressure;BME280_temperature;BME280_humidity;BME280_pressure;Samples;Min_cycle;Max_cycle;Signal;HPM_P1;HPM_P2
2022/06/22 00:02:08;;;;;;;;;;;;;;;-140.72;100.00;52419.28;6279325;22;20029;-72
2022/06/22 00:04:41;;;;;;;;;;;;;;;-140.72;100.00;52431.44;6252247;22;19915;-72
2022/06/22 00:07:24;;;;;;;;;;;;;;;-140.72;100.00;52411.16;6279273;22;19921;-72
2022/06/22 00:09:54;;;;;;;;;;;;;;;-140.72;100.00;52419.28;6252389;22;19915;-72
2022/06/22 00:12:22;;;;;;;;;;;;;;;-140.72;100.00;52445.66;6279404;22;19918;-71
2022/06/22 00:14:49;;;;;;;;;;;;;;;-140.72;100.00;52435.50;6251803;22;20218;-72
2022/06/22 00:17:23;;;;;;;;;;;;;;;-140.72;100.00;52403.03;6251748;22;19911;-72
2022/06/22 00:19:48;;;;;;;;;;;;;;;-140.72;100.00;52459.84;6279252;22;20273;-72
2022/06/22 00:22:21;;;;;;;;;;;;;;;-140.72;100.00;52417.25;6278870;22;19915;-72
2022/06/22 00:25:01;;;;;;;;;;;;;;;-140.72;100.00;52476.09;6251571;22;19912;-72
2022/06/22 00:27:36;;;;;;;;;;;;;;;-140.72;100.00;52423.31;6251972;22;19912;-72
2022/06/22 00:30:10;;;;;;;;;;;;;;;-140.72;100.00;52465.94;6279139;22;19911;-72
2022/06/22 00:32:36;;;;;;;;;;;;;;;-140.72;100.00;52439.56;6278609;22;19918;-72
2022/06/22 00:35:20;;;;;;;;;;;;;;;-140.72;100.00;52451.72;6278766;22;19912;-72
2022/06/22 00:37:45;;;;;;;;;;;;;;;-140.72;100.00;52439.56;6278725;22;19918;-72
2022/06/22 00:40:14;;;;;;;;;;;;;;;-140.72;100.00;52423.31;6278903;22;19915;-72
2022/06/22 00:42:44;;;;;;;;;;;;;;;-140.72;100.00;52449.72;6278946;22;19962;-72
2022/06/22 00:45:11;;;;;;;;;;;;;;;-140.72;100.00;52427.38;6278436;22;19911;-73
2022/06/22 00:47:44;;;;;;;;;;;;;;;-140.72;100.00;52445.66;6279028;22;20369;-72
2022/06/22 00:50:09;;;;;;;;;;;;;;;-140.72;100.00;52459.84;6251419;22;19911;-73
2022/06/22 00:52:39;;;;;;;;;;;;;;;-140.72;100.00;52439.56;6278487;22;19918;-73
2022/06/22 00:55:05;;;;;;;;;;;;;;;-140.72;100.00;52419.28;6251572;22;19915;-73
2022/06/22 00:57:34;;;;;;;;;;;;;;;-140.72;100.00;52467.97;6251568;22;19935;-73
2022/06/22 01:00:03;;;;;;;;;;;;;;;-140.72;100.00;52419.28;6251257;22;19911;-73
2022/06/22 01:02:47;;;;;;;;;;;;;;;-140.72;100.00;52457.81;6278569;22;19911;-74
2022/06/22 01:05:18;;;;;;;;;;;;;;;-140.72;100.00;52441.59;6278441;22;19911;-73
2022/06/22 01:07:55;;;;;;;;;;;;;;;-140.72;100.00;52421.28;6278571;22;20344;-73
2022/06/22 01:10:29;;;;;;;;;;;;;;;-140.72;100.00;52480.16;6251615;22;20293;-73
2022/06/22 01:12:58;;;;;;;;;;;;;;;-140.72;100.00;52482.16;6278525;22;19912;-73
2022/06/22 01:15:27;;;;;;;;;;;;;;;-140.72;100.00;52453.75;6252132;22;19927;-73
2022/06/22 01:21:26;;;;;;;;;;;;;;;-140.72;100.00;52433.47;6278723;22;19913;-73
2022/06/22 01:23:52;;;;;;;;;;;;;;;-140.72;100.00;52492.31;6278401;22;19942;-73
2022/06/22 01:26:36;;;;;;;;;;;;;;;-140.72;100.00;52427.38;6278449;22;19919;-73
2022/06/22 01:29:06;;;;;;;;;;;;;;;-140.72;100.00;52437.53;6251591;22;20241;-74
2022/06/22 01:31:33;;;;;;;;;;;;;;;-140.72;100.00;52522.75;6278835;22;19965;-74
2022/06/22 01:33:58;;;;;;;;;;;;;;;-140.72;100.00;52421.28;6278424;22;19911;-74
2022/06/22 01:36:33;;;;;;;;;;;;;;;-140.72;100.00;52423.31;6278711;22;19997;-73
2022/06/22 01:39:01;;;;;;;;;;;;;;;-140.72;100.00;52474.06;6278935;22;19934;-73
2022/06/22 01:41:45;;;;;;;;;;;;;;;-140.72;100.00;52508.56;6278626;22;20339;-73
2022/06/22 01:44:18;;;;;;;;;;;;;;;-140.72;100.00;52463.91;6278338;22;19950;-73
2022/06/22 01:46:50;;;;;;;;;;;;;;;-140.72;100.00;52500.44;6278529;22;19922;-72
2022/06/22 01:49:15;;;;;;;;;;;;;;;-140.72;100.00;52445.66;6278185;22;20317;-73
2022/06/22 01:51:50;;;;;;;;;;;;;;;-140.72;100.00;52496.38;6278207;22;19911;-73
2022/06/22 01:54:48;;;;;;;;;;;;;;;-140.72;100.00;52467.97;6278405;22;19911;-75
2022/06/22 01:57:17;;;;;;;;;;;;;;;-140.72;100.00;52470.00;6278920;22;19950;-73
2022/06/22 02:00:02;;;;;;;;;;;;;;;-140.72;100.00;52461.88;6278244;22;19915;-74
2022/06/22 02:02:35;;;;;;;;;;;;;;;-140.72;100.00;52490.28;6277902;22;19911;-74
2022/06/22 02:05:01;;;;;;;;;;;;;;;-140.72;100.00;52459.84;6278302;22;20333;-73
2022/06/22 02:07:44;;;;;;;;;;;;;;;-140.72;100.00;52457.81;6278320;22;19923;-75
2022/06/22 02:10:15;;;;;;;;;;;;;;;-140.72;100.00;52467.97;6278267;22;19916;-73
2022/06/22 02:12:49;;;;;;;;;;;;;;;-140.72;100.00;52496.38;6278251;22;19918;-73
2022/06/22 02:15:33;;;;;;;;;;;;;;;-140.72;100.00;52482.16;6278870;22;19912;-73
2022/06/22 02:18:00;;;;;;;;;;;;;;;-140.72;100.00;52470.00;6279595;22;19953;-74
2022/06/22 02:20:28;;;;;;;;;;;;;;;-140.72;100.00;52459.84;6281850;22;19919;-73
2022/06/22 02:22:56;;;;;;;;;;;;;;;-140.72;100.00;52494.34;6283899;22;19919;-74
2022/06/22 02:25:23;;;;;;;;;;;;;;;-140.72;100.00;52496.38;6284574;22;19919;-73
2022/06/22 02:27:49;;;;;;;;;;;;;;;-140.72;100.00;52516.66;6286093;22;19911;-73
2022/06/22 02:30:14;;;;;;;;;;;;;;;-140.72;100.00;52488.25;6284157;22;19911;-73
2022/06/22 02:32:41;;;;;;;;;;;;;;;-140.72;100.00;52496.38;6281491;22;19923;-73
2022/06/22 02:44:35;;;;;;;;;;;;;;;-140.72;100.00;52490.28;6278415;22;19953;-67
2022/06/22 02:47:10;;;;;;;;;;;;;;;-140.72;100.00;52453.75;6290639;22;19995;-68
2022/06/22 02:49:37;;;;;;;;;;;;;;;-140.72;100.00;52488.25;6263842;22;19911;-68
2022/06/22 02:52:03;;;;;;;;;;;;;;;-140.72;100.00;52476.09;6290736;22;20365;-68
2022/06/22 02:54:31;;;;;;;;;;;;;;;-140.72;100.00;52455.78;6291597;22;19911;-68
2022/06/22 02:57:08;;;;;;;;;;;;;;;-140.72;100.00;52463.91;6290850;22;19994;-67
2022/06/22 02:59:34;;;;;;;;;;;;;;;-140.72;100.00;52459.84;6263900;22;19911;-67
2022/06/22 03:01:59;;;;;;;;;;;;;;;-140.72;100.00;52463.91;6291363;22;19917;-68
2022/06/22 03:04:24;;;;;;;;;;;;;;;-140.72;100.00;52463.91;6292273;22;20018;-67
2022/06/22 03:06:52;;;;;;;;;;;;;;;-140.72;100.00;52496.38;6291853;22;19922;-68
2022/06/22 03:09:18;;;;;;;;;;;;;;;-140.72;100.00;52451.72;6264741;22;19945;-67
2022/06/22 03:11:47;;;;;;;;;;;;;;;-140.72;100.00;52528.84;6291792;22;20341;-67
2022/06/22 03:14:21;;;;;;;;;;;;;;;-140.72;100.00;52484.19;6266274;22;19911;-68
2022/06/22 03:16:49;;;;;;;;;;;;;;;-140.72;100.00;52492.31;6293517;22;19912;-68
2022/06/22 03:19:17;;;;;;;;;;;;;;;-140.72;100.00;52492.31;6267374;22;19959;-68
2022/06/22 03:21:42;;;;;;;;;;;;;;;-140.72;100.00;52472.03;6294550;22;19969;-68
2022/06/22 03:24:26;;;;;;;;;;;;;;;-140.72;100.00;52484.19;6294485;22;19919;-68
2022/06/22 03:26:55;;;;;;;;;;;;;;;-140.72;100.00;52508.56;6267161;22;19926;-67
2022/06/22 03:29:28;;;;;;;;;;;;;;;-140.72;100.00;52488.25;6266973;22;19927;-67
2022/06/22 03:31:56;;;;;;;;;;;;;;;-140.72;100.00;52488.25;6294774;22;19918;-68
2022/06/22 03:34:30;;;;;;;;;;;;;;;-140.72;100.00;52500.44;6267460;22;19926;-68
2022/06/22 03:37:06;;;;;;;;;;;;;;;-140.72;100.00;52496.38;6266304;22;20343;-69
2022/06/22 03:39:35;;;;;;;;;;;;;;;-140.72;100.00;52551.16;6294239;22;19931;-67
2022/06/22 03:42:04;;;;;;;;;;;;;;;-140.72;100.00;52472.03;6266296;22;19922;-67
2022/06/22 03:44:33;;;;;;;;;;;;;;;-140.72;100.00;52508.56;6267073;22;19918;-68
2022/06/22 03:47:10;;;;;;;;;;;;;;;-140.72;100.00;52478.13;6235840;23;19951;-69
2022/06/22 03:49:39;;;;;;;;;;;;;;;-140.72;100.00;52492.31;6262704;23;19946;-68
2022/06/22 03:52:10;;;;;;;;;;;;;;;-140.72;100.00;52490.28;6263007;23;19911;-68
2022/06/22 03:54:38;;;;;;;;;;;;;;;-140.72;100.00;52532.91;6263227;23;19912;-67
2022/06/22 03:57:07;;;;;;;;;;;;;;;-140.72;100.00;52502.47;6236178;23;19932;-67
2022/06/22 03:59:37;;;;;;;;;;;;;;;-140.72;100.00;52504.50;6236322;23;19912;-68
2022/06/22 04:02:03;;;;;;;;;;;;;;;-140.72;100.00;52480.16;6236943;23;19915;-67
2022/06/22 04:04:28;;;;;;;;;;;;;;;-140.72;100.00;52498.41;6269216;23;19912;-68
2022/06/22 04:06:54;;;;;;;;;;;;;;;-140.72;100.00;52467.97;6262939;23;19911;-67
2022/06/22 04:09:21;;;;;;;;;;;;;;;-140.72;100.00;52482.16;6263856;23;19931;-68
2022/06/22 04:11:55;;;;;;;;;;;;;;;-140.72;100.00;52508.56;6263052;23;19923;-67
2022/06/22 04:14:41;;;;;;;;;;;;;;;-140.72;100.00;52472.03;6263165;23;19939;-67
2022/06/22 04:17:10;;;;;;;;;;;;;;;-140.72;100.00;52488.25;6236079;23;19911;-68
2022/06/22 04:19:40;;;;;;;;;;;;;;;-140.72;100.00;52472.03;6235911;23;20278;-68
2022/06/22 04:22:09;;;;;;;;;;;;;;;-140.72;100.00;52504.50;6262775;23;19959;-68
2022/06/22 04:24:54;;;;;;;;;;;;;;;-140.72;100.00;52498.41;6261909;23;19911;-68
2022/06/22 04:27:29;;;;;;;;;;;;;;;-140.72;100.00;52470.00;6219870;23;19911;-67
2022/06/22 04:30:05;;;;;;;;;;;;;;;-140.72;100.00;52476.09;6262947;23;20234;-67
2022/06/22 04:32:33;;;;;;;;;;;;;;;-140.72;100.00;52437.53;6227993;23;19986;-71
2022/06/22 04:35:23;;;;;;;;;;;;;;;-140.72;100.00;52470.00;6248121;22;20403;-71
2022/06/22 04:37:57;;;;;;;;;;;;;;;-140.72;100.00;52470.00;6248709;23;19912;-72
2022/06/22 04:40:25;;;;;;;;;;;;;;;-140.72;100.00;52486.22;6248922;23;19911;-73
2022/06/22 04:42:54;;;;;;;;;;;;;;;-140.72;100.00;52439.56;6246313;23;19934;-71
2022/06/22 04:45:27;;;;;;;;;;;;;;;-140.72;100.00;52453.75;6257225;22;20241;-73
2022/06/22 04:47:54;;;;;;;;;;;;;;;-140.72;100.00;52480.16;6282912;22;19933;-70
2022/06/22 04:50:20;;;;;;;;;;;;;;;-140.72;100.00;52476.09;6285027;22;19912;-70
2022/06/22 04:52:48;;;;;;;;;;;;;;;-140.72;100.00;52457.81;6284664;22;19934;-71
2022/06/22 04:55:15;;;;;;;;;;;;;;;-140.72;100.00;52486.22;6282529;22;19994;-69
2022/06/22 04:57:42;;;;;;;;;;;;;;;-140.72;100.00;52474.06;6283954;22;19911;-69
2022/06/22 05:00:12;;;;;;;;;;;;;;;-140.72;100.00;52490.28;6257428;22;19916;-69
2022/06/22 05:02:39;;;;;;;;;;;;;;;-140.72;100.00;52472.03;6281982;22;19922;-69
2022/06/22 05:05:07;;;;;;;;;;;;;;;-140.72;100.00;52480.16;6284915;22;19911;-69
2022/06/22 05:07:34;;;;;;;;;;;;;;;-140.72;100.00;52449.72;6283686;22;19922;-70
2022/06/22 05:09:59;;;;;;;;;;;;;;;-140.72;100.00;52463.91;6285165;22;20302;-68
2022/06/22 05:12:26;;;;;;;;;;;;;;;-140.72;100.00;52470.00;6257233;22;19919;-69
2022/06/22 05:14:53;;;;;;;;;;;;;;;-140.72;100.00;52445.66;6285724;22;19926;-68
2022/06/22 05:17:22;;;;;;;;;;;;;;;-140.72;100.00;52480.16;6282854;22;19911;-68
2022/06/22 05:19:55;;;;;;;;;;;;;;;-140.72;100.00;52459.84;6257484;22;19931;-69
2022/06/22 05:22:20;;;;;;;;;;;;;;;-140.72;100.00;52433.47;6288396;22;19925;-69
2022/06/22 05:24:52;;;;;;;;;;;;;;;-140.72;100.00;52421.28;6262357;22;19912;-69
2022/06/22 05:27:22;;;;;;;;;;;;;;;-140.72;100.00;52425.34;6258744;22;19911;-67
2022/06/22 05:29:50;;;;;;;;;;;;;;;-140.72;100.00;52459.84;6284513;22;20185;-67
2022/06/22 05:32:24;;;;;;;;;;;;;;;-140.72;100.00;52419.28;6280661;22;19920;-69
2022/06/22 05:34:51;;;;;;;;;;;;;;;-140.72;100.00;52459.84;6253245;22;19911;-70
2022/06/22 05:37:23;;;;;;;;;;;;;;;-140.72;100.00;52431.44;6253129;22;19911;-68
2022/06/22 05:39:49;;;;;;;;;;;;;;;-140.72;100.00;52433.47;6280678;22;19915;-69
2022/06/22 05:42:15;;;;;;;;;;;;;;;-140.72;100.00;52461.88;6251835;22;20008;-68
2022/06/22 05:44:41;;;;;;;;;;;;;;;-140.72;100.00;52415.22;6252480;22;19923;-68
2022/06/22 05:47:16;;;;;;;;;;;;;;;-140.72;100.00;52425.34;6282779;22;19911;-69
2022/06/22 05:49:44;;;;;;;;;;;;;;;-140.72;100.00;52413.19;6253545;22;19923;-68
2022/06/22 05:52:13;;;;;;;;;;;;;;;-140.72;100.00;52421.28;6279605;22;19919;-67
2022/06/22 05:54:40;;;;;;;;;;;;;;;-140.72;100.00;52382.75;6278012;22;19915;-68
2022/06/22 05:57:12;;;;;;;;;;;;;;;-140.72;100.00;52421.28;6249221;22;20285;-68
2022/06/22 05:59:40;;;;;;;;;;;;;;;-140.72;100.00;52403.03;6278274;22;19912;-68
2022/06/22 06:02:12;;;;;;;;;;;;;;;-140.72;100.00;52386.81;6250420;22;19911;-67
2022/06/22 06:04:40;;;;;;;;;;;;;;;-140.72;100.00;52390.84;6283116;22;19930;-68
2022/06/22 06:07:25;;;;;;;;;;;;;;;-140.72;100.00;52421.28;6253102;22;19918;-66
2022/06/22 06:09:50;;;;;;;;;;;;;;;-140.72;100.00;52423.31;6281307;22;19911;-69
2022/06/22 06:12:19;;;;;;;;;;;;;;;-140.72;100.00;52413.19;6279278;22;19918;-68
2022/06/22 06:14:46;;;;;;;;;;;;;;;-140.72;100.00;52394.91;6254454;22;20006;-68
2022/06/22 06:17:15;;;;;;;;;;;;;;;-140.72;100.00;52352.31;6283811;22;19926;-67
2022/06/22 06:19:42;;;;;;;;;;;;;;;-140.72;100.00;52342.16;6292612;22;19927;-67
2022/06/22 06:22:08;;;;;;;;;;;;;;;-140.72;100.00;52394.91;6295329;22;19915;-68
2022/06/22 06:24:36;;;;;;;;;;;;;;;-140.72;100.00;52358.41;6294789;22;19911;-69
2022/06/22 06:30:00;;;;;;;;;;;;;;;-140.72;100.00;52384.78;6294637;22;19941;-67
2022/06/22 06:32:30;;;;;;;;;;;;;;;-140.72;100.00;52350.28;6294273;22;19911;-69
2022/06/22 06:34:59;;;;;;;;;;;;;;;-140.72;100.00;52390.84;6266632;22;20283;-69
2022/06/22 06:37:27;;;;;;;;;;;;;;;-140.72;100.00;52336.06;6288279;22;19911;-68
2022/06/22 06:39:54;;;;;;;;;;;;;;;-140.72;100.00;52362.44;6252003;22;19994;-69
2022/06/22 06:42:25;;;;;;;;;;;;;;;-140.72;100.00;52332.03;6276406;22;20090;-70
2022/06/22 06:44:51;;;;;;;;;;;;;;;-140.72;100.00;52362.44;6279363;22;19911;-69
2022/06/22 06:47:37;;;;;;;;;;;;;;;-140.72;100.00;52378.69;6284672;22;19919;-69
2022/06/22 06:50:06;;;;;;;;;;;;;;;-140.72;100.00;52376.66;6287599;22;19955;-68
2022/06/22 06:53:01;;;;;;;;;;;;;;;-140.72;100.00;52374.63;6287130;22;19912;-69
2022/06/22 06:55:37;;;;;;;;;;;;;;;-140.72;100.00;52354.34;6256975;22;19921;-70
2022/06/22 06:58:05;;;;;;;;;;;;;;;-140.72;100.00;52348.25;6286338;22;20011;-70
2022/06/22 07:00:34;;;;;;;;;;;;;;;-140.72;100.00;52338.09;6263186;22;19969;-68
2022/06/22 07:03:00;;;;;;;;;;;;;;;-140.72;100.00;52334.03;6292434;22;19911;-68
2022/06/22 07:05:26;;;;;;;;;;;;;;;-140.72;100.00;52325.94;6293607;22;19912;-68
2022/06/22 07:08:01;;;;;;;;;;;;;;;-140.72;100.00;52350.28;6263306;22;19915;-69
2022/06/22 07:10:48;;;;;;;;;;;;;;;-140.72;100.00;52368.53;6294086;22;19964;-69
2022/06/22 07:13:25;;;;;;;;;;;;;;;-140.72;100.00;52313.75;6292699;22;19911;-69
2022/06/22 07:15:53;;;;;;;;;;;;;;;-140.72;100.00;52309.69;6293721;22;20263;-69
2022/06/22 07:18:22;;;;;;;;;;;;;;;-140.72;100.00;52350.28;6294620;22;19899;-68
2022/06/22 07:20:51;;;;;;;;;;;;;;;-140.72;100.00;52281.28;6289012;22;19950;-70
2022/06/22 07:23:22;;;;;;;;;;;;;;;-140.72;100.00;52307.66;6289455;22;19931;-68
2022/06/22 07:26:23;;;;;;;;;;;;;;;-140.72;100.00;52289.41;6293198;22;19915;-68
2022/06/22 07:28:53;;;;;;;;;;;;;;;-140.72;100.00;52332.03;6168059;23;19923;-72
2022/06/22 07:31:21;;;;;;;;;;;;;;;-140.72;100.00;52342.16;6270495;22;19987;-70
2022/06/22 07:33:49;;;;;;;;;;;;;;;-140.72;100.00;52261.00;6291800;22;19915;-70
2022/06/22 07:36:18;;;;;;;;;;;;;;;-140.72;100.00;52295.50;6293760;22;19922;-69
2022/06/22 07:38:47;;;;;;;;;;;;;;;-140.72;100.00;52289.41;6294350;22;19903;-70
2022/06/22 07:41:22;;;;;;;;;;;;;;;-140.72;100.00;52273.19;6294682;22;19949;-70
2022/06/22 07:44:14;;;;;;;;;;;;;;;-140.72;100.00;52271.16;6264219;22;19927;-70
2022/06/22 07:46:45;;;;;;;;;;;;;;;-140.72;100.00;52258.97;6226136;23;19954;-71
2022/06/22 07:49:19;;;;;;;;;;;;;;;-140.72;100.00;52256.94;6255311;23;19911;-70
2022/06/22 07:51:49;;;;;;;;;;;;;;;-140.72;100.00;52291.44;6252624;23;19915;-72
2022/06/22 07:54:23;;;;;;;;;;;;;;;-140.72;100.00;52236.66;6252970;23;19911;-70
2022/06/22 07:56:51;;;;;;;;;;;;;;;-140.72;100.00;52232.59;6225789;23;19915;-72
2022/06/22 07:59:27;;;;;;;;;;;;;;;-140.72;100.00;52283.31;6261399;23;19994;-69
2022/06/22 08:01:55;;;;;;;;;;;;;;;-140.72;100.00;52228.53;6240491;23;19911;-70
2022/06/22 08:04:26;;;;;;;;;;;;;;;-140.72;100.00;52248.81;6267344;23;19976;-68
2022/06/22 08:06:57;;;;;;;;;;;;;;;-140.72;100.00;52261.00;6242875;23;19916;-68
2022/06/22 08:10:01;;;;;;;;;;;;;;;-140.72;100.00;52202.16;6267163;22;19911;-71
2022/06/22 08:12:42;;;;;;;;;;;;;;;-140.72;100.00;52230.56;6171142;23;19924;-70
2022/06/22 08:15:12;;;;;;;;;;;;;;;-140.72;100.00;52185.94;6169282;23;19953;-69
2022/06/22 08:17:42;;;;;;;;;;;;;;;-140.72;100.00;52208.25;6221069;23;19939;-68
2022/06/22 08:20:10;;;;;;;;;;;;;;;-140.72;100.00;52183.91;6263232;23;19911;-69
2022/06/22 08:22:35;;;;;;;;;;;;;;;-140.72;100.00;52167.66;6237074;23;19912;-70
2022/06/22 08:25:02;;;;;;;;;;;;;;;-140.72;100.00;52165.63;6236643;23;19946;-69
2022/06/22 08:27:28;;;;;;;;;;;;;;;-140.72;100.00;52141.28;6263694;23;19911;-70
2022/06/22 08:29:54;;;;;;;;;;;;;;;-140.72;100.00;52147.38;6235261;23;20009;-69
2022/06/22 08:32:19;;;;;;;;;;;;;;;-140.72;100.00;52159.56;6263379;23;19911;-67
2022/06/22 08:34:48;;;;;;;;;;;;;;;-140.72;100.00;52125.06;6263365;22;20348;-72
2022/06/22 08:37:17;;;;;;;;;;;;;;;-140.72;100.00;52123.03;6260961;23;19927;-71
2022/06/22 08:39:48;;;;;;;;;;;;;;;-140.72;100.00;52102.75;6262307;23;19916;-68
2022/06/22 08:42:24;;;;;;;;;;;;;;;-140.72;100.00;52114.91;6264516;23;19937;-69
2022/06/22 08:45:08;;;;;;;;;;;;;;;-140.72;100.00;52137.22;6264695;22;19922;-71
2022/06/22 08:47:47;;;;;;;;;;;;;;;-140.72;100.00;52037.81;6293660;22;19934;-69
2022/06/22 08:50:28;;;;;;;;;;;;;;;-140.72;100.00;52086.50;6294800;22;19935;-69
2022/06/22 08:53:18;;;;;;;;;;;;;;;-140.72;100.00;52086.50;6294833;22;19912;-71
2022/06/22 08:55:43;;;;;;;;;;;;;;;-140.72;100.00;52082.44;6294628;22;19935;-70
2022/06/22 08:58:16;;;;;;;;;;;;;;;-140.72;100.00;52080.41;6267184;22;19918;-69
2022/06/22 09:00:52;;;;;;;;;;;;;;;-140.72;100.00;52070.28;6286748;22;19915;-71
2022/06/22 09:03:29;;;;;;;;;;;;;;;-140.72;100.00;52029.69;6281514;22;20419;-71
2022/06/22 09:06:06;;;;;;;;;;;;;;;-140.72;100.00;52049.97;6286804;22;19911;-69
2022/06/22 09:08:40;;;;;;;;;;;;;;;-140.72;100.00;51989.13;6286321;22;19979;-71
2022/06/22 09:11:06;;;;;;;;;;;;;;;-140.72;100.00;51976.94;6284978;22;19911;-73
2022/06/22 09:13:34;;;;;;;;;;;;;;;-140.72;100.00;52009.41;6283907;22;19926;-72
2022/06/22 09:16:02;;;;;;;;;;;;;;;-140.72;100.00;52015.50;6278036;22;20278;-72
2022/06/22 09:18:30;;;;;;;;;;;;;;;-140.72;100.00;51993.19;6283318;22;20017;-71
2022/06/22 09:21:31;;;;;;;;;;;;;;;-140.72;100.00;51981.00;6293167;22;19911;-70
2022/06/22 09:24:05;;;;;;;;;;;;;;;-140.72;100.00;51952.59;6171060;23;20346;-69
2022/06/22 09:26:35;;;;;;;;;;;;;;;-140.72;100.00;51976.94;6276962;22;19944;-70
2022/06/22 09:29:07;;;;;;;;;;;;;;;-140.72;100.00;51976.94;6292862;22;19973;-69
2022/06/22 09:31:32;;;;;;;;;;;;;;;-140.72;100.00;51914.03;6292063;22;19915;-72
2022/06/22 09:34:00;;;;;;;;;;;;;;;-140.72;100.00;51932.31;6287919;22;19916;-69
2022/06/22 09:36:33;;;;;;;;;;;;;;;-140.72;100.00;51964.78;6292742;22;19956;-73
2022/06/22 09:39:17;;;;;;;;;;;;;;;-140.72;100.00;51928.25;6288391;22;19987;-71
2022/06/22 09:42:01;;;;;;;;;;;;;;;-140.72;100.00;51853.19;6259575;22;19943;-70
2022/06/22 09:44:45;;;;;;;;;;;;;;;-140.72;100.00;51879.56;6287148;22;20005;-70
2022/06/22 09:47:19;;;;;;;;;;;;;;;-140.72;100.00;51865.34;6287281;22;19915;-70
2022/06/22 09:50:03;;;;;;;;;;;;;;;-140.72;100.00;51847.09;6289445;22;19915;-70
2022/06/22 09:52:31;;;;;;;;;;;;;;;-140.72;100.00;51818.69;6290367;22;19990;-71
2022/06/22 09:57:46;;;;;;;;;;;;;;;-140.72;100.00;51838.97;6287147;22;19961;-72
2022/06/22 10:00:14;;;;;;;;;;;;;;;-140.72;93.07;51806.53;6286783;22;20572;-68
2022/06/22 10:02:51;;;;;;;;;;;;;;;-140.72;98.40;51814.63;6291340;22;19941;-69
2022/06/22 10:05:35;;;;;;;;;;;;;;;-140.72;93.77;51749.72;6290283;22;19937;-69
2022/06/22 10:08:07;;;;;;;;;;;;;;;-140.72;88.92;51741.59;6289888;22;19966;-68
2022/06/22 10:10:44;;;;;;;;;;;;;;;-140.72;84.35;51747.69;6291969;22;19938;-70
2022/06/22 10:13:18;;;;;;;;;;;;;;;-140.72;73.46;51749.72;6288926;22;19911;-68
2022/06/22 10:15:46;;;;;;;;;;;;;;;-140.72;72.57;51725.38;6260646;22;19947;-68
2022/06/22 10:18:21;;;;;;;;;;;;;;;-140.72;78.11;51729.44;6261321;22;20341;-69
2022/06/22 10:20:55;;;;;;;;;;;;;;;-140.72;81.84;51701.03;6290234;22;19922;-69
2022/06/22 10:23:26;;;;;;;;;;;;;;;-140.72;84.06;51731.44;6290900;22;19921;-68
2022/06/22 10:26:09;;;;;;;;;;;;;;;-140.72;89.94;51696.97;6290586;22;20006;-69
2022/06/22 10:28:42;;;;;;;;;;;;;;;-140.72;77.24;51694.94;6262567;22;20355;-69
2022/06/22 10:31:07;;;;;;;;;;;;;;;-140.72;77.57;51654.34;6289839;22;20249;-69
2022/06/22 10:33:38;;;;;;;;;;;;;;;-140.72;72.92;51632.03;6264036;22;19955;-68
2022/06/22 10:36:22;;;;;;;;;;;;;;;-140.72;75.07;51640.16;6263412;22;19935;-69
2022/06/22 10:38:53;;;;;;;;;;;;;;;-140.72;75.37;51621.91;6289839;22;19918;-68
2022/06/22 10:47:13;;;;;;;;;;;;;;;-140.72;64.71;51642.19;6275053;22;19990;-69
2022/06/22 10:49:41;;;;;;;;;;;;;;;-140.72;63.02;51591.47;6274946;22;19916;-68
2022/06/22 10:52:19;;;;;;;;;;;;;;;-140.72;71.14;51561.03;6273662;22;19919;-69
2022/06/22 10:55:03;;;;;;;;;;;;;;;-140.72;63.76;51550.91;6274384;22;20340;-72
2022/06/22 10:57:31;;;;;;;;;;;;;;;-140.72;67.17;51565.09;6246327;22;20217;-70
2022/06/22 10:59:58;;;;;;;;;;;;;;;-140.72;66.05;51583.34;6247180;22;19939;-69
2022/06/22 11:02:42;;;;;;;;;;;;;;;-140.72;65.99;51607.69;6275920;22;19948;-71
2022/06/22 11:05:26;;;;;;;;;;;;;;;-140.72;70.64;51583.34;6279778;22;19964;-71
2022/06/22 11:08:07;;;;;;;;;;;;;;;-140.72;67.38;51546.84;6256684;22;20344;-73
2022/06/22 11:10:39;;;;;;;;;;;;;;;-140.72;62.98;51534.66;6277975;22;19990;-73
2022/06/22 11:13:13;;;;;;;;;;;;;;;-140.72;60.99;51528.59;6249820;22;19921;-74
2022/06/22 11:15:51;;;;;;;;;;;;;;;-140.72;60.92;51552.94;6247196;22;19912;-73
2022/06/22 11:18:16;;;;;;;;;;;;;;;-140.72;55.51;51534.66;6246709;22;19915;-74
2022/06/22 11:21:00;;;;;;;;;;;;;;;-140.72;58.82;51485.97;6281353;22;19973;-73
2022/06/22 11:23:29;;;;;;;;;;;;;;;-140.72;53.06;51520.47;6253956;22;19963;-76
2022/06/22 11:32:07;;;;;;;;;;;;;;;-140.72;43.32;51459.59;6288869;22;19976;-70
2022/06/22 11:34:48;;;;;;;;;;;;;;;-140.72;38.08;51477.88;6262843;22;19938;-70
2022/06/22 11:37:16;;;;;;;;;;;;;;;-140.72;39.68;51483.94;6290822;22;19973;-73
2022/06/22 11:39:51;;;;;;;;;;;;;;;-140.72;42.53;51498.16;6263861;22;19959;-74
2022/06/22 11:42:23;;;;;;;;;;;;;;;-140.72;40.80;51494.09;6292145;22;20011;-71
2022/06/22 11:47:56;;;;;;;;;;;;;;;-140.72;40.17;51437.28;6290188;22;20006;-72
2022/06/22 11:50:36;;;;;;;;;;;;;;;-140.72;43.15;51445.41;6282996;22;20439;-71
2022/06/22 11:53:10;;;;;;;;;;;;;;;-140.72;41.30;51437.28;6278404;22;20380;-78
2022/06/22 11:55:39;;;;;;;;;;;;;;;-140.72;39.03;51449.47;6283107;22;19911;-73
2022/06/22 11:58:08;;;;;;;;;;;;;;;-140.72;43.41;51494.09;6262650;22;19911;-71
2022/06/22 12:00:51;;;;;;;;;;;;;;;-140.72;41.94;51433.22;6285235;22;20182;-74
2022/06/22 12:03:36;;;;;;;;;;;;;;;-140.72;48.20;51459.59;6256701;22;19915;-72
2022/06/22 12:06:12;;;;;;;;;;;;;;;-140.72;42.21;51425.13;6298931;22;19951;-73
2022/06/22 12:08:37;;;;;;;;;;;;;;;-140.72;43.77;51447.44;6263235;22;19915;-72
2022/06/22 12:11:02;;;;;;;;;;;;;;;-140.72;47.95;51445.41;6290051;22;19971;-73
2022/06/22 12:13:34;;;;;;;;;;;;;;;-140.72;41.23;51453.53;6260004;22;19973;-74
2022/06/22 12:16:02;;;;;;;;;;;;;;;-140.72;38.94;51463.66;6262375;22;19911;-74
2022/06/22 12:18:27;;;;;;;;;;;;;;;-140.72;42.80;51461.63;6263033;22;20050;-73
2022/06/22 12:21:11;;;;;;;;;;;;;;;-140.72;50.72;51469.75;6289191;22;19911;-74
2022/06/22 12:23:36;;;;;;;;;;;;;;;-140.72;49.34;51485.97;6261490;22;20415;-74
2022/06/22 12:26:12;;;;;;;;;;;;;;;-140.72;55.48;51459.59;6258994;22;19970;-74
2022/06/22 12:28:47;;;;;;;;;;;;;;;-140.72;47.61;51441.34;6260934;22;19919;-75
2022/06/22 12:31:17;;;;;;;;;;;;;;;-140.72;47.52;51408.88;6259528;22;19911;-74
2022/06/22 12:33:46;;;;;;;;;;;;;;;-140.72;42.78;51400.78;6262998;22;19926;-74
2022/06/22 12:36:11;;;;;;;;;;;;;;;-140.72;54.12;51419.03;6289023;22;19927;-73
2022/06/22 12:38:39;;;;;;;;;;;;;;;-140.72;52.10;51392.66;6288523;22;19990;-75
2022/06/22 12:41:05;;;;;;;;;;;;;;;-140.72;48.37;51400.78;6288773;22;19915;-73
2022/06/22 12:43:30;;;;;;;;;;;;;;;-140.72;51.17;51417.00;6261957;22;19922;-74
2022/06/22 12:45:56;;;;;;;;;;;;;;;-140.72;59.63;51463.66;6287099;22;19915;-74
2022/06/22 12:48:51;;;;;;;;;;;;;;;-140.72;49.71;51398.75;6285959;22;19915;-74
2022/06/22 12:51:17;;;;;;;;;;;;;;;-140.72;51.76;51404.84;6261317;22;19939;-74
2022/06/22 12:53:42;;;;;;;;;;;;;;;-140.72;50.83;51421.06;6260291;22;19911;-74
2022/06/22 12:56:07;;;;;;;;;;;;;;;-140.72;49.45;51427.16;6293601;22;19951;-75
2022/06/22 12:58:43;;;;;;;;;;;;;;;-140.72;50.94;51443.38;6289493;22;19911;-74
2022/06/22 13:01:08;;;;;;;;;;;;;;;-140.72;51.12;51453.53;6261073;22;20217;-76
2022/06/22 13:03:38;;;;;;;;;;;;;;;-140.72;49.48;51419.03;6259554;22;19911;-74
2022/06/22 13:06:04;;;;;;;;;;;;;;;-140.72;47.87;51469.75;6256637;22;19919;-76
2022/06/22 13:08:29;;;;;;;;;;;;;;;-140.72;57.47;51431.19;6280293;22;19918;-75
2022/06/22 13:11:03;;;;;;;;;;;;;;;-140.72;52.06;51483.94;6252104;22;19911;-75
2022/06/22 13:13:32;;;;;;;;;;;;;;;-140.72;52.03;51492.06;6279800;22;19922;-75
2022/06/22 13:16:04;;;;;;;;;;;;;;;-140.72;50.98;51548.88;6253128;22;19941;-76
2022/06/22 13:18:44;;;;;;;;;;;;;;;-140.72;55.90;51518.44;6280915;22;20384;-72